Minneapolis, Minnesota
Current Conditions -  °F | °C
As of 11:53 AM on Saturday 25 Oct 2014 (Local Time) from KMSP Reporting Station
Scattered Clouds Scattered Clouds  
Wind Chill: 57°   Ceiling: Unl
Heat Index: 57°   Visibility: 10mi
Dew Point: 31°   Wind: 15mph
Humidity: 37%   Direction: 310°NW
Pressure: 30.05"   Gusts: NA
Location:  44.98°N, 93.26°W
Report Text: KMSP 251653Z 31013KT 10SM SCT120 14/M01 A3005 RMK AO2 SLP179 T01391006
Loading
Personal Weather Stations






























Interactive Weather Map New forecast layout! Learn more

10-Day Weather Forecast

Advertisements
Track Severe Weather on mobile